Forside
METAR-TAF:

METAR-TAF

Lufthavne :

Harbin, Kina

Breddekreds: 45-45N, længdekreds: 126-46E, højde: 143 m

Aktuelle vejr

Denne rapport blev lavet for 16 minutter siden, kl. 17:00 UTC
Vind 6 kt fra sydvest
Temperatur 20°C
Fugtighed 88%
Tryk 1002 hPa
Sigt: 3500 m
Spredte skyer i en højde af 900 ft
dis

METAR: ZYHB 251700Z 22003MPS 3500 BR SCT009 20/18 Q1002 NOSIG

Tid: 01:16 (17:16 UTC)

Vejrudsigter

Denne rapport blev lavet for 8 timer og 12 minutter siden, kl. 09:04 UTC
Foreløbig gælder fra 25 på 12 UTC til 26 på 12 UTC
Vind 10 kt fra sydsydvest med vindstød på up til 21 kt
Sigt: 6000 m
Spredte skyer i en højde af 3000 ft
Midlertidig
fra 25 på 12 UTC til 25 på 18 UTC
Vind 16 kt fra varierende retninger med vindstød på up til 27 kt
Sigt: 2000 m
Nogle få skyer i en højde af 2300 ft, Cumulonimbus.
Brudte skyer i en højde af 3000 ft
tordenbyger, regn

TAF: ZYHB 250904Z 2512/2612 20005G11MPS 6000 SCT030 TX27/2606Z TN18/2520Z TEMPO 2512/2518 VRB08G14MPS 2000 TSRA FEW023CB BKN030

Vejrobservationer og prognoser fra mere end 4000 lufthavne (METAR og TAF).

De gule og røde prikker repræsenterer de meteorologiske stationer.

Flyt musen over at se navnet på stationen.

Så klik over at se vejr observationer og prognoser.

At skifte det kort: Klik på de grønne knapper med et sort kors for at zoome ind; på den grønne knap med en bindestreg for at zoome ud; eller på de grønne pile for tilstødende kort.


METAR-TAF: